Flight Track Log - Related Links

Times and Time Zones

All times are in EDT time to prevent confusion due to time zone crossing. See the VRD29 flight status page for this flight to view local times or setup timezone preferences in your user account.

Time Position Orientation Groundspeed Altitude Reporting Facility
EDT Latitude Longitude Course Direction KTS MPH feet Rate Location/Type
Fri 07:11:36 PM 40.6000 -73.8333 90° East 225 259 2,100  Level New York TRACON
Fri 07:12:36 PM 40.6000 -73.7500 90° East 276 318 4,400 2,300 Climbing New York TRACON
Fri 07:13:36 PM 40.6000 -73.6500 90° East 290 334 6,700 2,400 Climbing New York TRACON
Fri 07:14:36 PM 40.6667 -73.5833 37° Northeast 273 314 9,200 2,100 Climbing New York TRACON
Fri 07:15:36 PM 40.7333 -73.5833 360° North 271 312 10,900 1,600 Climbing New York TRACON
Fri 07:16:36 PM 40.8333 -73.5833 360° North 323 372 12,400 1,750 Climbing New York TRACON
Fri 07:17:36 PM 40.9000 -73.6333 330° Northwest 317 365 14,400 1,747 Climbing New York TRACON
Fri 07:19:14 PM 40.9897 -73.7894 307° West 343 395 17,000 987 Climbing New York Center
Fri 07:20:14 PM 41.0247 -73.8844 296° West 343 395 17,000  Level New York Center
Fri 07:21:14 PM 41.0442 -74.0147 281° West 330 380 17,000  Level New York Center
Fri 07:22:14 PM 41.0617 -74.1339 281° West 334 384 17,000  Level New York Center
Fri 07:23:14 PM 41.0753 -74.2419 280° West 334 384 17,000  Level New York Center
Fri 07:24:14 PM 41.0942 -74.3722 281° West 334 384 17,000 400 Level New York Center
Fri 07:25:14 PM 41.1075 -74.4803 279° West 334 384 17,800 1,200 Climbing New York Center
Fri 07:26:14 PM 41.1225 -74.5994 280° West 334 384 19,400 1,518 Climbing New York Center
Fri 07:32:01 PM 41.3657 -75.2248 300° West 326 375 28,100 1,346 Climbing FlightAware ADS-B (KPHL)
Fri 07:34:02 PM 41.4580 -75.4420 300° West 332 382 29,900 761 Climbing FlightAware ADS-B
Fri 07:36:29 PM 41.5450 -75.7230 291° West 348 400 31,500 640 Climbing FlightAware ADS-B
Fri 07:37:47 PM 41.5900 -75.8800 291° West 351 404 32,300 604 Climbing FlightAware ADS-B
Fri 07:38:48 PM 41.6250 -76.0040 291° West 362 417 32,900 551 Climbing FlightAware ADS-B
Fri 07:39:25 PM 41.6470 -76.0840 291° West 365 420 33,200 486 Climbing FlightAware ADS-B
Fri 07:40:02 PM 41.6690 -76.1620 291° West 368 423 33,500 490 Climbing FlightAware ADS-B
Fri 07:41:03 PM 41.7060 -76.2920 291° West 371 427 34,000 330 Climbing FlightAware ADS-B
Fri 07:41:33 PM 41.7230 -76.3540 291° West 370 426 34,000  Level FlightAware ADS-B
Fri 07:42:09 PM 41.7450 -76.4320 291° West 370 426 34,000  Level FlightAware ADS-B
Fri 07:42:39 PM 41.7630 -76.4970 291° West 373 429 34,000  Level FlightAware ADS-B
Fri 07:43:15 PM 41.7850 -76.5770 291° West 374 430 34,000  Level FlightAware ADS-B
Fri 07:43:45 PM 41.8030 -76.6400 291° West 374 430 34,000  Level FlightAware ADS-B
Fri 07:44:15 PM 41.8210 -76.7060 291° West 374 430 34,000  Level FlightAware ADS-B
Fri 07:44:45 PM 41.8390 -76.7710 291° West 373 429 34,000 90 Level FlightAware ADS-B
Fri 07:45:22 PM 41.8600 -76.8480 291° West 370 426 34,100  Climbing FlightAware ADS-B
Fri 07:45:51 PM 41.8770 -76.9120 291° West 367 422 34,000 -128 Descending FlightAware ADS-B
Fri 07:46:09 PM 41.8868 -76.9472 291° West 365 420 34,000  Level FlightAware ADS-B (CYYZ)
Fri 07:46:28 PM 41.8980 -76.9900 291° West 364 419 34,000  Level FlightAware ADS-B
Fri 07:46:38 PM 41.9040 -77.0105 291° West 364 419 34,000  Level FlightAware ADS-B (CYYZ)
Fri 07:47:04 PM 41.9190 -77.0650 290° West 362 417 34,000  Level FlightAware ADS-B
Fri 07:47:40 PM 41.9390 -77.1410 290° West 361 415 34,000  Level FlightAware ADS-B
Fri 07:48:09 PM 41.9560 -77.2020 290° West 360 414 34,000  Level FlightAware ADS-B
Fri 07:48:38 PM 41.9716 -77.2623 290° West 360 414 34,000  Level FlightAware ADS-B (CYYZ)
Fri 07:48:45 PM 41.9760 -77.2780 290° West 360 414 34,000  Level FlightAware ADS-B
Fri 07:49:08 PM 41.9883 -77.3246 290° West 359 413 34,000  Level FlightAware ADS-B (CYYZ)
Fri 07:49:15 PM 41.9930 -77.3410 290° West 359 413 34,000  Level FlightAware ADS-B
Fri 07:49:37 PM 41.9919 -77.3380 290° West 358 412 34,000  Level FlightAware ADS-B (CYYZ)
Fri 07:49:46 PM 42.0090 -77.4030 290° West 358 412 34,000  Level FlightAware ADS-B
Fri 07:50:08 PM 42.0206 -77.4449 291° West 356 410 34,000  Level FlightAware ADS-B (CYYZ)
Fri 07:50:22 PM 42.0300 -77.4790 291° West 356 410 34,000  Level FlightAware ADS-B
Fri 07:50:36 PM 42.0351 -77.4977 291° West 356 410 34,000  Level FlightAware ADS-B (CYYZ)
Fri 07:50:51 PM 42.0470 -77.5410 291° West 355 409 34,000  Level FlightAware ADS-B
Fri 07:51:10 PM 42.0550 -77.5780 281° West 357 411 34,000  Level FlightAware ADS-B
Fri 07:51:13 PM 42.0559 -77.5865 279° West 357 411 34,000  Level FlightAware ADS-B (CYYZ)
Fri 07:51:45 PM 42.0610 -77.6570 276° West 359 413 34,000  Level FlightAware ADS-B
Fri 07:51:52 PM 42.0619 -77.6715 276° West 359 413 34,000  Level FlightAware ADS-B (CYYZ)
Fri 07:52:21 PM 42.0670 -77.7380 276° West 358 412 34,000  Level FlightAware ADS-B
Fri 07:52:22 PM 42.0665 -77.7325 276° West 358 412 34,000  Level FlightAware ADS-B (CYYZ)
Fri 07:52:51 PM 42.0720 -77.8050 276° West 358 412 34,000  Level FlightAware ADS-B
Fri 07:52:53 PM 42.0711 -77.7949 276° West 358 412 34,000  Level FlightAware ADS-B (CYYZ)
Fri 07:53:21 PM 42.0770 -77.8690 276° West 357 411 34,000  Level FlightAware ADS-B
Fri 07:53:23 PM 42.0766 -77.8699 276° West 357 411 34,000  Level FlightAware ADS-B (CYYZ)
Fri 07:53:53 PM 42.0816 -77.9394 276° West 356 410 34,000  Level FlightAware ADS-B (CYYZ)
Fri 07:53:57 PM 42.0820 -77.9490 276° West 355 409 34,000  Level FlightAware ADS-B
Fri 07:54:24 PM 42.0865 -78.0064 276° West 355 409 34,000  Level FlightAware ADS-B (CYYZ)
Fri 07:54:33 PM 42.0880 -78.0270 276° West 355 409 34,000  Level FlightAware ADS-B
Fri 07:54:53 PM 42.0910 -78.0690 276° West 354 407 34,000  Level FlightAware ADS-B (CYYZ)
Fri 07:55:04 PM 42.0930 -78.0920 276° West 353 406 34,000  Level FlightAware ADS-B
Fri 07:55:23 PM 42.0957 -78.1357 276° West 353 406 34,000  Level FlightAware ADS-B (CYYZ)
Fri 07:55:37 PM 42.0980 -78.1650 276° West 351 404 34,000  Level FlightAware ADS-B
Fri 07:55:53 PM 42.1003 -78.2003 276° West 351 404 34,000  Level FlightAware ADS-B (CYYZ)
Fri 07:56:23 PM 42.1048 -78.2664 276° West 350 403 34,000  Level FlightAware ADS-B (CYYZ)
Fri 07:56:53 PM 42.1092 -78.3307 276° West 349 402 34,000  Level FlightAware ADS-B (CYYZ)
Fri 07:57:24 PM 42.1136 -78.3923 276° West 349 402 34,000  Level FlightAware ADS-B (CYYZ)
Fri 07:57:54 PM 42.1182 -78.4579 276° West 349 402 34,000  Level FlightAware ADS-B (CYYZ)
Fri 07:58:23 PM 42.1227 -78.5252 276° West 350 403 34,000  Level FlightAware ADS-B (CYYZ)
Fri 07:58:53 PM 42.1272 -78.5894 276° West 350 403 34,000  Level FlightAware ADS-B (CYYZ)
Fri 07:59:24 PM 42.1316 -78.6542 276° West 350 403 34,000  Level FlightAware ADS-B (CYYZ)
Fri 07:59:54 PM 42.1359 -78.7194 276° West 350 403 34,000  Level FlightAware ADS-B (CYYZ)
Fri 08:00:24 PM 42.1400 -78.7830 276° West 350 403 34,000  Level FlightAware ADS-B (CYYZ)
Fri 08:00:53 PM 42.1443 -78.8482 276° West 350 403 34,000  Level FlightAware ADS-B (CYYZ)
Fri 08:01:24 PM 42.1486 -78.9126 276° West 350 403 34,000  Level FlightAware ADS-B (CYYZ)
Fri 08:01:31 PM 42.1497 -78.9294 275° West 349 402 34,000  Level FlightAware ADS-B
Fri 08:01:53 PM 42.1527 -78.9756 276° West 349 402 34,000  Level FlightAware ADS-B (CYYZ)
Fri 08:02:09 PM 42.1545 -79.0049 275° West 349 402 34,000  Level FlightAware ADS-B
Fri 08:02:23 PM 42.1537 -78.9907 276° West 350 403 34,000  Level FlightAware ADS-B (CYYZ)
Fri 08:02:53 PM 42.1610 -79.1064 275° West 350 403 34,000  Level FlightAware ADS-B (CYYZ)
Fri 08:03:23 PM 42.1651 -79.1715 275° West 349 402 34,000  Level FlightAware ADS-B (CYYZ)
Fri 08:03:53 PM 42.1692 -79.2373 275° West 347 399 34,000  Level FlightAware ADS-B (CYYZ)
Fri 08:04:23 PM 42.1732 -79.3020 275° West 346 398 34,000  Level FlightAware ADS-B (CYYZ)
Fri 08:04:54 PM 42.1771 -79.3668 275° West 344 396 34,000  Level FlightAware ADS-B (CYYZ)
Fri 08:05:23 PM 42.1808 -79.4284 275° West 343 395 34,000  Level FlightAware ADS-B (CYYZ)
Fri 08:05:41 PM 42.1824 -79.4538 275° West 341 392 34,000  Level FlightAware ADS-B
Fri 08:05:54 PM 42.1847 -79.4918 275° West 341 392 34,000  Level FlightAware ADS-B (CYYZ)
Fri 08:06:15 PM 42.1874 -79.5369 275° West 340 391 34,000  Level FlightAware ADS-B
Fri 08:06:23 PM 42.1886 -79.5567 275° West 341 392 34,000  Level FlightAware ADS-B (CYYZ)
Fri 08:06:54 PM 42.1922 -79.6181 275° West 340 391 34,000  Level FlightAware ADS-B (CYYZ)
Fri 08:07:24 PM 42.1958 -79.6803 275° West 339 390 34,000  Level FlightAware ADS-B (CYYZ)
Fri 08:07:53 PM 42.1994 -79.7450 275° West 339 390 34,000  Level FlightAware ADS-B (CYYZ)
Fri 08:08:21 PM 42.2002 -79.7597 274° West 338 389 34,000  Level FlightAware ADS-B (CYKF)
Fri 08:08:23 PM 42.2029 -79.8076 275° West 339 390 34,000  Level FlightAware ADS-B (CYYZ)
Fri 08:08:54 PM 42.2065 -79.8717 275° West 339 390 34,000  Level FlightAware ADS-B (CYYZ)
Fri 08:09:02 PM 42.2075 -79.8871 274° West 338 389 34,000  Level FlightAware ADS-B (CYKF)
Fri 08:09:23 PM 42.2100 -79.9328 275° West 339 390 34,000  Level FlightAware ADS-B (CYYZ)
Fri 08:09:54 PM 42.2136 -79.9969 275° West 338 389 34,000  Level FlightAware ADS-B (CYYZ)
Fri 08:10:22 PM 42.2169 -80.0563 274° West 337 388 34,000  Level FlightAware ADS-B (CYKF)
Fri 08:10:23 PM 42.2171 -80.0601 275° West 338 389 34,000  Level FlightAware ADS-B (CYYZ)
Fri 08:10:54 PM 42.2206 -80.1228 275° West 338 389 34,000  Level FlightAware ADS-B (CYYZ)
Fri 08:11:23 PM 42.2238 -80.1848 275° West 337 388 34,000  Level FlightAware ADS-B (CYYZ)
Fri 08:11:53 PM 42.2271 -80.2476 275° West 337 388 34,000  Level FlightAware ADS-B (CYYZ)
Fri 08:12:16 PM 42.2278 -80.2626 274° West 336 387 34,000  Level FlightAware ADS-B (CYKF)
Fri 08:12:23 PM 42.2304 -80.3098 275° West 336 387 34,000  Level FlightAware ADS-B (CYYZ)
Fri 08:12:54 PM 42.2337 -80.3735 275° West 336 387 34,000  Level FlightAware ADS-B (CYYZ)
Fri 08:13:22 PM 42.2366 -80.4303 274° West 337 388 34,000  Level FlightAware ADS-B (CYKF)
Fri 08:13:24 PM 42.2369 -80.4345 275° West 337 388 34,000  Level FlightAware ADS-B (CYYZ)
Fri 08:13:53 PM 42.2401 -80.4981 275° West 338 389 34,000  Level FlightAware ADS-B (CYYZ)
Fri 08:14:23 PM 42.2433 -80.5611 275° West 339 390 34,000  Level FlightAware ADS-B (CYYZ)
Fri 08:14:53 PM 42.2464 -80.6230 275° West 340 391 34,000  Level FlightAware ADS-B (CYYZ)
Fri 08:15:24 PM 42.2496 -80.6872 274° West 341 392 34,000  Level FlightAware ADS-B (CYYZ)
Fri 08:15:54 PM 42.2528 -80.7520 274° West 341 392 34,000  Level FlightAware ADS-B (CYYZ)
Fri 08:16:23 PM 42.2558 -80.8156 274° West 342 394 34,000  Level FlightAware ADS-B (CYYZ)
Fri 08:16:53 PM 42.2588 -80.8792 274° West 342 394 34,000  Level FlightAware ADS-B (CYYZ)
Fri 08:17:22 PM 42.2616 -80.9378 274° West 342 394 34,000  Level FlightAware ADS-B (CYYZ)
Fri 08:17:54 PM 42.2648 -81.0064 274° West 342 394 34,000  Level FlightAware ADS-B (CYYZ)
Fri 08:18:23 PM 42.2678 -81.0700 274° West 341 392 34,000  Level FlightAware ADS-B (CYYZ)
Fri 08:18:54 PM 42.2707 -81.1332 274° West 341 392 34,000  Level FlightAware ADS-B (CYYZ)
Fri 08:19:24 PM 42.2735 -81.1960 274° West 342 394 34,000  Level FlightAware ADS-B (CYYZ)
Fri 08:19:54 PM 42.2763 -81.2593 274° West 343 395 34,000  Level FlightAware ADS-B (CYYZ)
Fri 08:20:24 PM 42.2791 -81.3229 274° West 344 396 34,000  Level FlightAware ADS-B (CYYZ)
Fri 08:20:53 PM 42.2818 -81.3840 274° West 345 397 34,000  Level FlightAware ADS-B (CYYZ)
Fri 08:21:16 PM 42.2827 -81.4058 273° West 345 397 34,000  Level FlightAware ADS-B (CYKF)
Fri 08:21:24 PM 42.2847 -81.4525 274° West 345 397 34,000  Level FlightAware ADS-B (CYYZ)
Fri 08:21:54 PM 42.2872 -81.5133 274° West 345 397 34,000  Level FlightAware ADS-B (CYYZ)
Fri 08:22:21 PM 42.2894 -81.5682 274° West 345 397 34,000  Level FlightAware ADS-B (CYYZ)
Fri 08:22:54 PM 42.2925 -81.6444 274° West 345 397 34,000  Level FlightAware ADS-B (CYYZ)
Fri 08:23:24 PM 42.2952 -81.7094 274° West 344 396 34,000  Level FlightAware ADS-B (CYYZ)
Fri 08:23:54 PM 42.2977 -81.7724 274° West 345 397 34,000  Level FlightAware ADS-B (CYYZ)
Fri 08:24:23 PM 42.3003 -81.8373 274° West 347 399 34,000  Level FlightAware ADS-B (CYYZ)
Fri 08:24:54 PM 42.3027 -81.9007 274° West 348 400 34,000  Level FlightAware ADS-B (CYYZ)
Fri 08:25:24 PM 42.3052 -81.9672 273° West 348 400 34,000  Level FlightAware ADS-B (CYYZ)
Fri 08:25:53 PM 42.3076 -82.0324 274° West 347 399 34,000  Level FlightAware ADS-B (CYYZ)
Fri 08:26:24 PM 42.3100 -82.0983 274° West 347 399 34,000  Level FlightAware ADS-B (CYYZ)
Fri 08:26:53 PM 42.3125 -82.1620 273° West 345 397 34,000  Level FlightAware ADS-B (CYYZ)
Fri 08:27:23 PM 42.3147 -82.2245 273° West 344 396 34,000  Level FlightAware ADS-B (CYYZ)
Fri 08:27:54 PM 42.3170 -82.2904 273° West 344 396 34,000  Level FlightAware ADS-B (CYYZ)
Fri 08:28:23 PM 42.3192 -82.3550 273° West 345 397 34,000  Level FlightAware ADS-B (CYYZ)
Fri 08:28:53 PM 42.3214 -82.4182 273° West 346 398 34,000  Level FlightAware ADS-B (CYYZ)
Fri 08:29:23 PM 42.3234 -82.4772 273° West 347 399 34,000  Level FlightAware ADS-B (CYYZ)
Fri 08:29:54 PM 42.3257 -82.5474 273° West 347 399 34,000  Level FlightAware ADS-B (CYYZ)
Fri 08:30:23 PM 42.3278 -82.6125 273° West 347 399 34,000  Level FlightAware ADS-B (CYYZ)
Fri 08:30:53 PM 42.3297 -82.6745 273° West 346 398 34,000  Level FlightAware ADS-B (CYYZ)
Fri 08:31:24 PM 42.3316 -82.7342 273° West 346 398 34,000  Level FlightAware ADS-B (CYYZ)
Fri 08:31:53 PM 42.3339 -82.8054 273° West 345 397 34,000  Level FlightAware ADS-B (CYYZ)
Fri 08:32:21 PM 42.3354 -82.8581 273° West 345 397 34,000  Level FlightAware ADS-B (CYYZ)
Fri 08:32:45 PM 42.3368 -82.9027 273° West 345 397 34,000  Level FlightAware ADS-B (CYYZ)
Fri 08:35:38 PM 42.3447 -83.2723 256° West 350 403 34,000 145 Level FlightAware ADS-B (CYYZ)
Fri 08:36:54 PM 42.2954 -83.4396 248° West 352 405 34,600 457 Climbing FlightAware ADS-B (CYYZ)
Fri 08:37:23 PM 42.2780 -83.4969 248° West 354 407 34,800 346 Climbing FlightAware ADS-B (CYYZ)
Fri 08:40:57 PM 42.2579 -83.9550 272° West 356 410 36,000 272 Climbing FlightAware ADS-B
Fri 08:41:48 PM 42.2606 -84.0690 272° West 353 406 36,000  Level FlightAware ADS-B
Fri 08:42:26 PM 42.2623 -84.1473 272° West 350 403 36,000  Level FlightAware ADS-B
Fri 08:42:59 PM 42.2638 -84.2147 272° West 349 402 36,000  Level FlightAware ADS-B
Fri 08:43:38 PM 42.2658 -84.3093 272° West 348 400 36,000  Level FlightAware ADS-B
Fri 08:44:10 PM 42.2672 -84.3764 272° West 348 400 36,000  Level FlightAware ADS-B
Fri 08:45:09 PM 42.2699 -84.5066 272° West 349 402 36,000  Level FlightAware ADS-B
Fri 08:45:59 PM 42.2719 -84.6157 271° West 352 405 36,000  Level FlightAware ADS-B
Fri 08:46:30 PM 42.2730 -84.6841 271° West 353 406 36,000  Level FlightAware ADS-B
Fri 08:47:00 PM 42.2740 -84.7483 271° West 354 407 36,000  Level FlightAware ADS-B
Fri 08:47:30 PM 42.2750 -84.8065 271° West 354 407 36,000  Level FlightAware ADS-B
Fri 08:48:09 PM 42.2767 -84.8994 271° West 353 406 36,000  Level FlightAware ADS-B
Fri 08:49:10 PM 42.2787 -85.0319 271° West 350 403 36,000  Level FlightAware ADS-B
Fri 08:49:50 PM 42.2800 -85.1213 271° West 348 400 36,000  Level FlightAware ADS-B
Fri 08:50:20 PM 42.2808 -85.1835 271° West 346 398 36,000  Level FlightAware ADS-B
Fri 08:50:59 PM 42.2820 -85.2690 271° West 345 397 36,000  Level FlightAware ADS-B
Fri 08:51:40 PM 42.2829 -85.3525 271° West 347 399 36,000  Level FlightAware ADS-B
Fri 08:52:10 PM 42.2836 -85.4220 271° West 347 399 36,000  Level FlightAware ADS-B
Fri 08:52:40 PM 42.2845 -85.4874 271° West 348 400 36,000  Level FlightAware ADS-B
Fri 08:53:10 PM 42.2850 -85.5470 271° West 350 403 36,000  Level FlightAware ADS-B
Fri 08:53:40 PM 42.2856 -85.6191 271° West 352 405 36,000  Level FlightAware ADS-B
Fri 08:54:10 PM 42.2862 -85.6854 271° West 354 407 36,000  Level FlightAware ADS-B
Fri 08:54:40 PM 42.2867 -85.7471 271° West 355 409 36,000  Level FlightAware ADS-B
Fri 08:55:10 PM 42.2873 -85.8121 271° West 356 410 36,000  Level FlightAware ADS-B
Fri 08:55:40 PM 42.2879 -85.8845 271° West 357 411 36,000  Level FlightAware ADS-B
Fri 08:56:10 PM 42.2883 -85.9506 271° West 357 411 36,000  Level FlightAware ADS-B
Fri 08:56:40 PM 42.2888 -86.0174 270° West 358 412 36,000  Level FlightAware ADS-B
Fri 08:57:10 PM 42.2892 -86.0846 271° West 358 412 36,000  Level FlightAware ADS-B
Fri 08:57:40 PM 42.2894 -86.1474 270° West 357 411 36,000  Level FlightAware ADS-B
Fri 08:58:20 PM 42.2898 -86.2378 270° West 357 411 36,000  Level FlightAware ADS-B
Fri 08:58:59 PM 42.2901 -86.3265 270° West 357 411 36,000  Level FlightAware ADS-B
Fri 08:59:34 PM 42.2904 -86.3945 270° West 357 411 36,000  Level FlightAware ADS-B (EGPH / EDI)
Fri 09:00:08 PM 42.2906 -86.4746 270° West 358 412 36,000  Level FlightAware ADS-B
Fri 09:00:38 PM 42.2908 -86.5403 270° West 359 413 36,000  Level FlightAware ADS-B
Fri 09:01:09 PM 42.2910 -86.6129 270° West 361 415 36,000  Level FlightAware ADS-B
Fri 09:01:59 PM 42.2909 -86.7285 270° West 362 417 36,000  Level FlightAware ADS-B
Fri 09:02:30 PM 42.2908 -86.7971 270° West 362 417 36,000  Level FlightAware ADS-B
Fri 09:03:06 PM 42.2905 -86.8675 270° West 362 417 36,000  Level FlightAware ADS-B
Fri 09:03:56 PM 42.2905 -86.8787 270° West 362 417 36,000  Level FlightAware ADS-B (EGPH / EDI)
Fri 09:05:42 PM 42.2894 -87.2205 270° West 364 419 36,000  Level FlightAware ADS-B
Fri 09:06:12 PM 42.2891 -87.2995 270° West 364 419 36,000  Level FlightAware ADS-B
Fri 09:06:42 PM 42.2888 -87.3679 270° West 364 419 36,000  Level FlightAware ADS-B
Fri 09:07:12 PM 42.2883 -87.4358 269° West 363 418 36,000  Level FlightAware ADS-B
Fri 09:07:42 PM 42.2878 -87.5030 270° West 363 418 36,000  Level FlightAware ADS-B
Fri 09:08:12 PM 42.2874 -87.5728 269° West 364 419 36,000  Level FlightAware ADS-B
Fri 09:08:52 PM 42.2867 -87.6516 269° West 364 419 36,000  Level FlightAware ADS-B
Fri 09:09:22 PM 42.2861 -87.7255 269° West 365 420 36,000  Level FlightAware ADS-B
Fri 09:09:52 PM 42.2854 -87.7992 269° West 366 421 36,000  Level FlightAware ADS-B
Fri 09:10:31 PM 42.2844 -87.8886 269° West 367 422 36,000  Level FlightAware ADS-B
Fri 09:11:02 PM 42.2837 -87.9565 269° West 366 421 36,000  Level FlightAware ADS-B
Fri 09:11:32 PM 42.2830 -88.0135 269° West 366 421 36,000  Level FlightAware ADS-B
Fri 09:12:02 PM 42.2820 -88.0974 269° West 366 421 36,000  Level FlightAware ADS-B
Fri 09:12:32 PM 42.2812 -88.1656 269° West 364 419 36,000  Level FlightAware ADS-B
Fri 09:13:02 PM 42.2805 -88.2303 269° West 361 415 36,000  Level FlightAware ADS-B
Fri 09:13:33 PM 42.2795 -88.2961 269° West 359 413 36,000  Level FlightAware ADS-B
Fri 09:14:23 PM 42.2779 -88.4062 269° West 357 411 36,000  Level FlightAware ADS-B
Fri 09:15:02 PM 42.2764 -88.4988 269° West 355 409 36,000  Level FlightAware ADS-B
Fri 09:15:42 PM 42.2749 -88.5893 269° West 355 409 36,000  Level FlightAware ADS-B
Fri 09:16:12 PM 42.2739 -88.6531 269° West 356 410 36,000  Level FlightAware ADS-B
Fri 09:16:42 PM 42.2727 -88.7162 269° West 357 411 36,000  Level FlightAware ADS-B
Fri 09:17:22 PM 42.2711 -88.8097 269° West 359 413 36,000  Level FlightAware ADS-B
Fri 09:18:01 PM 42.2694 -88.8968 268° West 359 413 36,000  Level FlightAware ADS-B
Fri 09:18:32 PM 42.2680 -88.9669 269° West 358 412 36,000  Level FlightAware ADS-B
Fri 09:19:02 PM 42.2667 -89.0327 268° West 360 414 36,000  Level FlightAware ADS-B
Fri 09:19:32 PM 42.2654 -89.0958 268° West 359 413 36,000  Level FlightAware ADS-B
Fri 09:20:02 PM 42.2641 -89.1610 268° West 358 412 36,000  Level FlightAware ADS-B
Fri 09:20:40 PM 42.2623 -89.2411 268° West 357 411 36,000  Level FlightAware ADS-B (EGPH / EDI)
Fri 09:21:12 PM 42.2607 -89.3233 268° West 354 407 36,000  Level FlightAware ADS-B
Fri 09:21:42 PM 42.2601 -89.3461 268° West 351 404 36,000  Level FlightAware ADS-B (EGPH / EDI)
Fri 09:22:13 PM 42.2576 -89.4519 268° West 350 403 36,000  Level FlightAware ADS-B
Fri 09:22:43 PM 42.2559 -89.5192 268° West 348 400 36,000  Level FlightAware ADS-B
Fri 09:23:24 PM 42.2536 -89.6096 268° West 347 399 36,000  Level FlightAware ADS-B (EGPH / EDI)
Fri 09:24:02 PM 42.2514 -89.6930 268° West 348 400 36,000  Level FlightAware ADS-B
Fri 09:24:32 PM 42.2496 -89.7581 268° West 350 403 36,000  Level FlightAware ADS-B
Fri 09:25:02 PM 42.2478 -89.8206 268° West 352 405 36,000  Level FlightAware ADS-B
Fri 09:25:43 PM 42.2455 -89.9120 268° West 354 407 36,000  Level FlightAware ADS-B
Fri 09:26:22 PM 42.2431 -89.9986 268° West 356 410 36,000  Level FlightAware ADS-B
Fri 09:27:02 PM 42.2405 -90.0866 268° West 358 412 36,000  Level FlightAware ADS-B
Fri 09:27:32 PM 42.2384 -90.1532 268° West 360 414 36,000  Level FlightAware ADS-B
Fri 09:28:12 PM 42.2356 -90.2438 268° West 361 415 36,000  Level FlightAware ADS-B
Fri 09:28:52 PM 42.2336 -90.3090 268° West 362 417 36,000  Level FlightAware ADS-B
Fri 09:29:42 PM 42.2291 -90.4478 268° West 361 415 36,000  Level FlightAware ADS-B
Fri 09:30:12 PM 42.2273 -90.5071 268° West 360 414 36,000  Level FlightAware ADS-B
Fri 09:30:53 PM 42.2245 -90.5934 267° West 359 413 36,000  Level FlightAware ADS-B
Fri 09:31:32 PM 42.2214 -90.6830 267° West 358 412 36,000  Level FlightAware ADS-B
Fri 09:32:02 PM 42.2188 -90.7586 267° West 357 411 36,000  Level FlightAware ADS-B
Fri 09:32:40 PM 42.2157 -90.8422 267° West 356 410 36,000  Level FlightAware ADS-B (SBMG / MGF)
Fri 09:33:12 PM 42.2131 -90.9133 267° West 355 409 36,000  Level FlightAware ADS-B
Fri 09:33:52 PM 42.2102 -90.9879 267° West 353 406 36,000  Level FlightAware ADS-B
Fri 09:34:37 PM 42.2060 -91.1001 267° West 353 406 36,000  Level FlightAware ADS-B (SBMG / MGF)
Fri 09:35:13 PM 42.2030 -91.1777 267° West 354 407 36,000  Level FlightAware ADS-B (SBMG / MGF)
Fri 09:36:00 PM 42.1989 -91.2811 267° West 356 410 36,000  Level FlightAware ADS-B (SBMG / MGF)
Fri 09:36:39 PM 42.1953 -91.3694 267° West 357 411 36,000  Level FlightAware ADS-B (SBMG / MGF)
Fri 09:37:20 PM 42.1917 -91.4592 267° West 357 411 36,000  Level FlightAware ADS-B (SBMG / MGF)
Fri 09:37:56 PM 42.1886 -91.5323 267° West 358 412 36,000  Level FlightAware ADS-B (LPVM)
Fri 09:38:35 PM 42.1845 -91.6263 267° West 357 411 36,000  Level FlightAware ADS-B (LPVM)
Fri 09:39:15 PM 42.1806 -91.7153 267° West 357 411 36,000  Level FlightAware ADS-B (LPVM)
Fri 09:39:55 PM 42.1768 -91.8011 267° West 356 410 36,000  Level FlightAware ADS-B (LPVM)
Fri 09:40:26 PM 42.1739 -91.8668 267° West 356 410 36,000  Level FlightAware ADS-B (LPVM)
Fri 09:40:56 PM 42.1707 -91.9379 267° West 356 410 36,000  Level FlightAware ADS-B (LPVM)
Fri 09:41:41 PM 42.1671 -92.0174 267° West 357 411 36,000  Level FlightAware ADS-B (SBMG / MGF)
Fri 09:42:12 PM 42.1638 -92.0887 266° West 358 412 36,000  Level FlightAware ADS-B (LPVM)
Fri 09:42:42 PM 42.1599 -92.1704 266° West 359 413 36,000  Level FlightAware ADS-B (SBMG / MGF)
Fri 09:43:17 PM 42.1568 -92.2339 266° West 358 412 36,000  Level FlightAware ADS-B (LPVM)
Fri 09:43:55 PM 42.1523 -92.3249 266° West 358 412 36,000  Level FlightAware ADS-B (LPVM)
Fri 09:44:56 PM 42.1458 -92.4570 266° West 358 412 36,000  Level FlightAware ADS-B (LPVM)
Fri 09:45:30 PM 42.1415 -92.5422 266° West 358 412 36,000  Level FlightAware ADS-B (LPVM)
Fri 09:46:02 PM 42.1377 -92.6168 266° West 358 412 36,000  Level FlightAware ADS-B (SBMG / MGF)
Fri 09:48:13 PM 42.1223 -92.9068 266° West 359 413 36,000  Level FlightAware ADS-B (LPVM)
Fri 09:53:46 PM 42.0820 -93.6138 265° West 355 409 36,000  Level FlightAware ADS-B
Fri 09:54:16 PM 42.0776 -93.6805 265° West 355 409 36,000  Level FlightAware ADS-B
Fri 09:54:48 PM 42.0714 -93.7784 266° West 355 409 36,000  Level FlightAware ADS-B
Fri 09:55:33 PM 42.0655 -93.8761 265° West 356 410 36,000  Level FlightAware ADS-B
Fri 09:56:10 PM 42.0600 -93.9585 265° West 357 411 36,000  Level FlightAware ADS-B
Fri 09:56:43 PM 42.0554 -94.0312 265° West 359 413 36,000  Level FlightAware ADS-B
Fri 09:57:18 PM 42.0511 -94.0995 265° West 359 413 36,000  Level FlightAware ADS-B
Fri 09:58:02 PM 42.0438 -94.2079 265° West 361 415 36,000  Level FlightAware ADS-B
Fri 09:58:32 PM 42.0393 -94.2711 265° West 361 415 36,000  Level FlightAware ADS-B
Fri 09:59:17 PM 42.0334 -94.3621 265° West 360 414 36,000  Level FlightAware ADS-B
Fri 09:59:47 PM 42.0288 -94.4355 265° West 360 414 36,000  Level FlightAware ADS-B
Fri 10:00:29 PM 42.0263 -94.4720 265° West 359 413 36,000  Level FlightAware ADS-B
Fri 10:01:02 PM 42.0205 -94.5566 265° West 359 413 36,000  Level FlightAware ADS-B (LPVM)
Fri 10:01:58 PM 42.0263 -94.4720 265° West 358 412 36,000  Level FlightAware ADS-B
Fri 10:03:52 PM 42.0093 -94.7184 264° West 359 413 36,000  Level FlightAware ADS-B (LPVM)
Fri 10:04:56 PM 41.9811 -95.1142 264° West 358 412 36,000  Level Minneapolis Center
Fri 10:05:57 PM 41.9717 -95.2456 265° West 358 412 36,000  Level Minneapolis Center
Fri 10:06:58 PM 41.9611 -95.3764 264° West 355 409 36,000  Level Minneapolis Center
Fri 10:08:00 PM 41.9514 -95.5072 264° West 355 409 36,000  Level Minneapolis Center
Fri 10:09:01 PM 41.9408 -95.6403 264° West 358 412 36,000  Level Minneapolis Center
Fri 10:10:02 PM 41.9303 -95.7714 264° West 358 412 36,000  Level Minneapolis Center
Fri 10:11:04 PM 41.9194 -95.9014 264° West 357 411 36,000  Level Minneapolis Center
Fri 10:12:05 PM 41.9072 -96.0592 264° West 356 410 36,000  Level Minneapolis Center
Fri 10:13:06 PM 41.8958 -96.1900 263° West 356 410 36,000  Level Minneapolis Center
Fri 10:14:07 PM 41.8856 -96.3208 264° West 356 410 36,000  Level Minneapolis Center
Fri 10:15:09 PM 41.8742 -96.4544 264° West 357 411 36,000  Level Minneapolis Center
Fri 10:16:10 PM 41.8625 -96.5864 263° West 357 411 36,000  Level Minneapolis Center
Fri 10:17:11 PM 41.8506 -96.7172 263° West 357 411 36,000  Level Minneapolis Center
Fri 10:18:13 PM 41.8389 -96.8506 263° West 357 411 36,000  Level Minneapolis Center
Fri 10:19:14 PM 41.8272 -96.9822 263° West 358 412 36,000  Level Minneapolis Center
Fri 10:20:15 PM 41.8122 -97.1394 263° West 358 412 36,000  Level Minneapolis Center
Fri 10:21:16 PM 41.8008 -97.2700 263° West 357 411 36,000  Level Minneapolis Center
Fri 10:22:18 PM 41.7883 -97.4028 263° West 358 412 36,000  Level Minneapolis Center
Fri 10:23:19 PM 41.7756 -97.5361 263° West 358 412 36,000  Level Minneapolis Center
Fri 10:24:20 PM 41.7631 -97.6700 263° West 359 413 36,000  Level Minneapolis Center
Fri 10:25:21 PM 41.7494 -97.8039 262° West 360 414 36,000  Level Minneapolis Center
Fri 10:26:22 PM 41.7361 -97.9389 263° West 363 418 36,000  Level Minneapolis Center
Fri 10:27:23 PM 41.7231 -98.0739 263° West 363 418 36,000  Level Minneapolis Center
Fri 10:28:25 PM 41.7078 -98.2264 262° West 364 419 36,000  Level Minneapolis Center
Fri 10:29:26 PM 41.6936 -98.3625 262° West 366 421 36,000  Level Minneapolis Center
Fri 10:30:27 PM 41.6794 -98.4961 262° West 366 421 36,000  Level Minneapolis Center
Fri 10:31:28 PM 41.6650 -98.6303 262° West 366 421 36,000  Level Minneapolis Center
Fri 10:32:29 PM 41.6506 -98.7644 262° West 366 421 36,000  Level Minneapolis Center
Fri 10:33:30 PM 41.6364 -98.8994 262° West 366 421 36,000  Level Minneapolis Center
Fri 10:34:31 PM 41.6222 -99.0336 262° West 366 421 36,000  Level Minneapolis Center
Fri 10:35:33 PM 41.6078 -99.1678 262° West 366 421 36,000  Level Minneapolis Center
Fri 10:36:34 PM 41.5903 -99.3300 262° West 367 422 36,000  Level Minneapolis Center
Fri 10:37:35 PM 41.5753 -99.4658 262° West 368 423 36,000  Level Minneapolis Center
Fri 10:38:36 PM 41.5592 -99.6019 261° West 368 423 36,000  Level Minneapolis Center
Fri 10:39:37 PM 41.5439 -99.7375 261° West 369 425 36,000  Level Minneapolis Center
Fri 10:40:38 PM 41.5286 -99.8731 261° West 369 425 36,000  Level Minneapolis Center
Fri 10:41:39 PM 41.5131 -100.0092 261° West 369 425 36,000  Level Minneapolis Center
Fri 10:42:41 PM 41.4964 -100.1444 261° West 369 425 36,000  Level Minneapolis Center
Fri 10:48:32 PM 41.3957 -100.9606 260° West 376 433 36,000  Level FlightAware ADS-B (KEIK)
Fri 10:49:02 PM 41.3880 -101.0202 260° West 376 433 36,000  Level FlightAware ADS-B (KEIK)
Fri 10:49:46 PM 41.3755 -101.1178 260° West 377 434 36,000  Level FlightAware ADS-B (KEIK)
Fri 10:50:26 PM 41.3623 -101.2197 260° West 377 434 36,000  Level FlightAware ADS-B (KEIK)
Fri 10:51:05 PM 41.3508 -101.3080 260° West 376 433 36,000  Level FlightAware ADS-B (KEIK)
Fri 10:51:45 PM 41.3398 -101.3931 260° West 377 434 36,000  Level FlightAware ADS-B (KEIK)
Fri 10:52:15 PM 41.3299 -101.4692 260° West 377 434 36,000  Level FlightAware ADS-B (KEIK)
Fri 10:52:46 PM 41.3234 -101.5188 260° West 378 435 36,000  Level FlightAware ADS-B (KEIK)
Fri 10:53:16 PM 41.3120 -101.6069 260° West 378 435 36,000  Level FlightAware ADS-B (KEIK)
Fri 10:53:53 PM 41.3012 -101.6878 260° West 379 436 36,000  Level FlightAware ADS-B (KEIK)
Fri 10:54:36 PM 41.2886 -101.7823 260° West 381 438 36,000  Level FlightAware ADS-B (KEIK)
Fri 10:55:20 PM 41.2736 -101.8920 260° West 380 437 36,000  Level FlightAware ADS-B (KEIK)
Fri 10:56:00 PM 41.2612 -101.9820 260° West 380 437 36,000  Level FlightAware ADS-B (KEIK)
Fri 10:56:42 PM 41.2481 -102.0804 260° West 380 437 36,000  Level FlightAware ADS-B (KEIK)
Fri 10:57:26 PM 41.2348 -102.1770 260° West 380 437 36,000  Level FlightAware ADS-B (KEIK)
Fri 10:58:05 PM 41.2238 -102.2562 260° West 380 437 36,000  Level FlightAware ADS-B (KEIK)
Fri 10:58:36 PM 41.2122 -102.3403 260° West 379 436 36,000  Level FlightAware ADS-B (KEIK)
Fri 10:59:12 PM 41.2017 -102.4157 260° West 379 436 36,000  Level FlightAware ADS-B (KEIK)
Fri 10:59:46 PM 41.1897 -102.5011 260° West 379 436 36,000  Level FlightAware ADS-B (KEIK)
Fri 11:00:17 PM 41.1801 -102.5696 259° West 380 437 36,000  Level FlightAware ADS-B
Fri 11:00:55 PM 41.1677 -102.6562 260° West 378 435 36,000  Level FlightAware ADS-B (KEIK)
Fri 11:01:26 PM 41.1601 -102.7109 259° West 380 437 36,000  Level FlightAware ADS-B
Fri 11:02:06 PM 41.1445 -102.8198 259° West 379 436 36,000  Level FlightAware ADS-B (KEIK)
Fri 11:02:47 PM 41.1313 -102.9109 259° West 381 438 36,000  Level FlightAware ADS-B (KEIK)
Fri 11:03:25 PM 41.1181 -103.0011 259° West 382 440 36,000  Level FlightAware ADS-B (KEIK)
Fri 11:03:58 PM 41.1086 -103.0667 259° West 382 440 36,000  Level FlightAware ADS-B
Fri 11:04:38 PM 41.0948 -103.1601 259° West 381 438 36,000  Level FlightAware ADS-B (KEIK)
Fri 11:05:08 PM 41.0842 -103.2318 259° West 381 438 36,000  Level FlightAware ADS-B (KEIK)
Fri 11:05:38 PM 41.0735 -103.3040 259° West 381 438 36,000  Level FlightAware ADS-B (KEIK)
Fri 11:06:09 PM 41.0630 -103.3745 259° West 382 440 36,000  Level FlightAware ADS-B (KEIK)
Fri 11:06:49 PM 41.0496 -103.4648 259° West 383 441 36,000  Level FlightAware ADS-B (KEIK)
Fri 11:07:30 PM 41.0378 -103.5434 259° West 385 443 36,000  Level FlightAware ADS-B (KEIK)
Fri 11:08:02 PM 41.0249 -103.6292 259° West 386 444 36,000  Level FlightAware ADS-B
Fri 11:08:40 PM 41.0124 -103.7114 259° West 387 445 36,000  Level FlightAware ADS-B (KEIK)
Fri 11:09:20 PM 40.9969 -103.8127 259° West 387 445 36,000  Level FlightAware ADS-B (KEIK)
Fri 11:09:53 PM 40.9850 -103.8904 259° West 387 445 36,000  Level FlightAware ADS-B
Fri 11:10:29 PM 40.9720 -103.9746 258° West 387 445 36,000  Level FlightAware ADS-B (KEIK)
Fri 11:10:59 PM 40.9611 -104.0441 258° West 388 447 36,000  Level FlightAware ADS-B
Fri 11:11:39 PM 40.9471 -104.1339 258° West 388 447 36,000  Level FlightAware ADS-B (KEIK)
Fri 11:12:10 PM 40.9357 -104.2067 258° West 388 447 36,000  Level FlightAware ADS-B (KEIK)
Fri 11:12:49 PM 40.9215 -104.2991 258° West 389 448 36,000  Level FlightAware ADS-B (KEIK)
Fri 11:13:23 PM 40.9097 -104.3737 258° West 389 448 36,000  Level FlightAware ADS-B
Fri 11:13:53 PM 40.8985 -104.4432 258° West 388 447 36,000  Level FlightAware ADS-B
Fri 11:14:23 PM 40.8873 -104.5131 258° West 388 447 36,000  Level FlightAware ADS-B
Fri 11:14:53 PM 40.8763 -104.5828 258° West 390 449 36,000  Level FlightAware ADS-B
Fri 11:15:23 PM 40.8654 -104.6506 258° West 390 449 36,000  Level FlightAware ADS-B
Fri 11:15:53 PM 40.8537 -104.7225 258° West 391 450 36,000  Level FlightAware ADS-B
Fri 11:16:24 PM 40.8472 -104.7625 258° West 390 449 36,000  Level FlightAware ADS-B
Fri 11:16:54 PM 40.8318 -104.8578 258° West 388 447 36,000  Level FlightAware ADS-B
Fri 11:17:29 PM 40.8178 -104.9434 258° West 386 444 36,000  Level FlightAware ADS-B (KEIK)
Fri 11:18:04 PM 40.8055 -105.0190 258° West 385 443 36,000  Level FlightAware ADS-B
Fri 11:18:34 PM 40.7936 -105.0913 258° West 383 441 36,000  Level FlightAware ADS-B
Fri 11:19:12 PM 40.7787 -105.1816 258° West 384 442 36,000  Level FlightAware ADS-B (KEIK)
Fri 11:19:43 PM 40.7668 -105.2529 258° West 384 442 36,000  Level FlightAware ADS-B (KEIK)
Fri 11:20:13 PM 40.7566 -105.3139 258° West 384 442 36,000  Level FlightAware ADS-B (KEIK)
Fri 11:20:43 PM 40.7434 -105.3923 258° West 384 442 36,000  Level FlightAware ADS-B (KEIK)
Fri 11:21:13 PM 40.7325 -105.4568 257° West 386 444 36,000  Level FlightAware ADS-B (KEIK)
Fri 11:21:44 PM 40.7207 -105.5266 258° West 387 445 36,000  Level FlightAware ADS-B (KEIK)
Fri 11:22:26 PM 40.7042 -105.6229 257° West 390 449 36,000  Level FlightAware ADS-B (KEIK)
Fri 11:22:56 PM 40.6922 -105.6927 257° West 390 449 36,000  Level FlightAware ADS-B (KEIK)
Fri 11:23:35 PM 40.6774 -105.7796 257° West 388 447 36,000 87 Level FlightAware ADS-B (KEIK)
Fri 11:24:05 PM 40.6644 -105.8564 257° West 386 444 36,100  Climbing FlightAware ADS-B (KEIK)
Fri 11:24:35 PM 40.6527 -105.9246 257° West 386 444 36,000 -100 Descending FlightAware ADS-B (KEIK)
Fri 11:25:05 PM 40.6406 -105.9932 257° West 384 442 36,000  Level FlightAware ADS-B (KEIK)
Fri 11:25:35 PM 40.6286 -106.0618 257° West 383 441 36,000  Level FlightAware ADS-B
Fri 11:26:06 PM 40.6169 -106.1295 257° West 381 438 36,000  Level FlightAware ADS-B (KEIK)
Fri 11:26:39 PM 40.6037 -106.2056 257° West 381 438 36,000  Level FlightAware ADS-B (KEIK)
Fri 11:27:09 PM 40.5934 -106.2641 257° West 381 438 36,000  Level FlightAware ADS-B (KEIK)
Fri 11:27:39 PM 40.5811 -106.3335 257° West 382 440 36,000  Level FlightAware ADS-B (KEIK)
Fri 11:28:19 PM 40.5638 -106.4300 257° West 382 440 36,000  Level FlightAware ADS-B (KEIK)
Fri 11:28:49 PM 40.5519 -106.4963 257° West 382 440 36,000  Level FlightAware ADS-B (KEIK)
Fri 11:29:20 PM 40.5391 -106.5670 257° West 381 438 36,000  Level FlightAware ADS-B (KEIK)
Fri 11:29:51 PM 40.5266 -106.6381 257° West 381 438 36,000  Level FlightAware ADS-B (KEIK)
Fri 11:30:31 PM 40.5103 -106.7283 257° West 381 438 36,000  Level FlightAware ADS-B (KEIK)
Fri 11:31:12 PM 40.4937 -106.8189 257° West 381 438 36,000  Level FlightAware ADS-B (KEIK)
Fri 11:31:42 PM 40.4820 -106.8844 257° West 380 437 36,000  Level FlightAware ADS-B (KEIK)
Fri 11:32:34 PM 40.4604 -107.0027 257° West 381 438 36,000  Level FlightAware ADS-B (KEIK)
Fri 11:33:05 PM 40.4600 -107.0049 257° West 381 438 36,000  Level FlightAware ADS-B
Fri 11:34:06 PM 40.4219 -107.2107 256° West 384 442 36,000  Level FlightAware ADS-B
Fri 11:34:38 PM 40.4088 -107.2820 256° West 384 442 36,000  Level FlightAware ADS-B
Fri 11:35:09 PM 40.3960 -107.3494 256° West 385 443 36,000  Level FlightAware ADS-B
Fri 11:35:39 PM 40.3828 -107.4197 256° West 387 445 36,000  Level FlightAware ADS-B
Fri 11:36:09 PM 40.3708 -107.4833 256° West 388 447 36,000  Level FlightAware ADS-B
Fri 11:36:39 PM 40.3577 -107.5527 256° West 390 449 36,000  Level FlightAware ADS-B
Fri 11:37:10 PM 40.3462 -107.6141 256° West 392 451 36,000  Level FlightAware ADS-B (KGUC)
Fri 11:37:41 PM 40.3300 -107.6996 256° West 392 451 36,000  Level FlightAware ADS-B
Fri 11:38:15 PM 40.3150 -107.7788 256° West 394 453 36,000  Level FlightAware ADS-B
Fri 11:38:45 PM 40.3019 -107.8466 256° West 393 452 36,000 98 Level FlightAware ADS-B
Fri 11:39:16 PM 40.2886 -107.9165 256° West 392 451 36,100  Climbing FlightAware ADS-B
Fri 11:39:57 PM 40.2705 -108.0107 256° West 392 451 36,000 -85 Descending FlightAware ADS-B
Fri 11:40:27 PM 40.2572 -108.0799 256° West 392 451 36,000  Level FlightAware ADS-B
Fri 11:41:01 PM 40.2428 -108.1543 256° West 392 451 36,000  Level FlightAware ADS-B
Fri 11:41:31 PM 40.2282 -108.2286 256° West 393 452 36,000  Level FlightAware ADS-B (KGUC)
Fri 11:42:01 PM 40.2146 -108.2970 256° West 393 452 36,000  Level FlightAware ADS-B (KGUC)
Fri 11:42:32 PM 40.2008 -108.3675 256° West 394 453 36,000  Level FlightAware ADS-B (KGUC)
Fri 11:43:08 PM 40.1845 -108.4507 256° West 393 452 36,000  Level FlightAware ADS-B
Fri 11:43:16 PM 40.1808 -108.4696 256° West 393 452 36,000  Level FlightAware ADS-B
Fri 11:43:48 PM 40.1662 -108.5429 256° West 392 451 36,000  Level FlightAware ADS-B
Fri 11:44:20 PM 40.1516 -108.6174 256° West 390 449 36,000  Level FlightAware ADS-B (KGUC)
Fri 11:44:32 PM 40.1466 -108.6429 255° West 390 449 36,000  Level FlightAware ADS-B
Fri 11:45:12 PM 40.1305 -108.7236 255° West 388 447 36,000  Level FlightAware ADS-B (KGUC)
Fri 11:45:42 PM 40.1150 -108.8004 255° West 387 445 36,000  Level FlightAware ADS-B (KGUC)
Fri 11:46:17 PM 40.0985 -108.8809 255° West 386 444 36,000  Level FlightAware ADS-B
Fri 11:46:47 PM 40.0851 -108.9470 255° West 387 445 36,000  Level FlightAware ADS-B
Fri 11:47:18 PM 40.0713 -109.0164 256° West 386 444 36,000  Level FlightAware ADS-B
Fri 11:47:48 PM 40.0575 -109.0843 255° West 386 444 36,000  Level FlightAware ADS-B
Fri 11:48:18 PM 40.0434 -109.1534 255° West 386 444 36,000  Level FlightAware ADS-B
Fri 11:48:49 PM 40.0295 -109.2211 255° West 386 444 36,000  Level FlightAware ADS-B
Fri 11:49:20 PM 40.0148 -109.2914 255° West 386 444 36,000  Level FlightAware ADS-B
Fri 11:49:52 PM 40.0003 -109.3619 255° West 386 444 36,000  Level FlightAware ADS-B (KGUC)
Fri 11:50:24 PM 39.9852 -109.4351 255° West 386 444 36,000  Level FlightAware ADS-B
Fri 11:50:56 PM 39.9708 -109.5056 255° West 387 445 36,000  Level FlightAware ADS-B
Fri 11:51:26 PM 39.9564 -109.5743 255° West 387 445 36,000  Level FlightAware ADS-B
Fri 11:51:56 PM 39.9420 -109.6429 255° West 387 445 36,000  Level FlightAware ADS-B
Fri 11:52:27 PM 39.9279 -109.7104 255° West 388 447 36,000  Level FlightAware ADS-B
Fri 11:52:57 PM 39.9138 -109.7778 255° West 388 447 36,000  Level FlightAware ADS-B
Fri 11:53:27 PM 39.8990 -109.8474 255° West 387 445 36,000  Level FlightAware ADS-B
Fri 11:54:01 PM 39.8833 -109.9221 255° West 386 444 36,000  Level FlightAware ADS-B (KGUC)
Fri 11:54:31 PM 39.8695 -109.9872 255° West 384 442 36,000  Level FlightAware ADS-B (KGUC)
Fri 11:55:01 PM 39.8547 -110.0566 255° West 385 443 36,000  Level FlightAware ADS-B (KGUC)
Fri 11:55:31 PM 39.8405 -110.1229 255° West 386 444 36,000  Level FlightAware ADS-B (KGUC)
Fri 11:56:01 PM 39.8264 -110.1890 255° West 386 444 36,000  Level FlightAware ADS-B (KGUC)
Fri 11:56:31 PM 39.8117 -110.2573 254° West 386 444 36,000  Level FlightAware ADS-B (KGUC)
Fri 11:57:03 PM 39.7968 -110.3263 254° West 389 448 36,000  Level FlightAware ADS-B (KGUC)
Fri 11:57:33 PM 39.7817 -110.3961 254° West 391 450 36,000  Level FlightAware ADS-B (KGUC)
Fri 11:58:03 PM 39.7672 -110.4630 254° West 393 452 36,000 90 Level FlightAware ADS-B (KGUC)
Fri 11:58:40 PM 39.7489 -110.5465 254° West 392 451 36,100 90 Climbing FlightAware ADS-B
Fri 11:59:10 PM 39.7339 -110.6155 254° West 389 448 36,100 -98 Level FlightAware ADS-B
Fri 11:59:41 PM 39.7188 -110.6839 254° West 388 447 36,000 -95 Descending FlightAware ADS-B
Sat 12:00:13 AM 39.7041 -110.7507 254° West 385 443 36,000  Level FlightAware ADS-B
Sat 12:00:48 AM 39.6869 -110.8291 254° West 384 442 36,000  Level FlightAware ADS-B
Sat 12:01:23 AM 39.6743 -110.8860 254° West 384 442 36,000  Level FlightAware ADS-B
Sat 12:01:53 AM 39.6545 -110.9756 254° West 384 442 36,000  Level FlightAware ADS-B
Sat 12:02:23 AM 39.6401 -111.0401 254° West 384 442 36,000  Level FlightAware ADS-B
Sat 12:03:03 AM 39.6225 -111.1184 254° West 387 445 36,000  Level FlightAware ADS-B
Sat 12:03:43 AM 39.6008 -111.2150 254° West 389 448 36,000  Level FlightAware ADS-B
Sat 12:04:16 AM 39.5831 -111.2945 254° West 393 452 36,000  Level FlightAware ADS-B
Sat 12:04:47 AM 39.5672 -111.3645 254° West 394 453 36,000 91 Level FlightAware ADS-B
Sat 12:05:22 AM 39.5532 -111.4259 254° West 394 453 36,100 86 Climbing FlightAware ADS-B
Sat 12:05:57 AM 39.5308 -111.5244 253° West 395 455 36,100  Level FlightAware ADS-B
Sat 12:06:28 AM 39.5157 -111.5900 254° West 391 450 36,100  Level FlightAware ADS-B
Sat 12:07:00 AM 39.4992 -111.6625 254° West 386 444 36,100  Level FlightAware ADS-B
Sat 12:07:10 AM 39.4939 -111.6855 255° West 383 441 36,100 -150 Level FlightAware ADS-B
Sat 12:07:40 AM 39.4800 -111.7462 254° West 383 441 36,000 -98 Descending FlightAware ADS-B
Sat 12:08:11 AM 39.4630 -111.8193 253° West 383 441 36,000  Level FlightAware ADS-B
Sat 12:08:43 AM 39.4474 -111.8862 255° West 381 438 36,000  Level FlightAware ADS-B (KBTF)
Sat 12:09:05 AM 39.4353 -111.9384 253° West 384 442 36,000  Level FlightAware ADS-B
Sat 12:09:36 AM 39.4198 -112.0055 253° West 387 445 36,000  Level FlightAware ADS-B
Sat 12:10:08 AM 39.4034 -112.0761 254° West 390 449 36,000  Level FlightAware ADS-B
Sat 12:10:39 AM 39.3873 -112.1457 253° West 391 450 36,000  Level FlightAware ADS-B
Sat 12:11:11 AM 39.3716 -112.2127 253° West 392 451 36,000  Level FlightAware ADS-B
Sat 12:11:41 AM 39.3551 -112.2824 253° West 392 451 36,000  Level FlightAware ADS-B
Sat 12:12:13 AM 39.3379 -112.3549 253° West 393 452 36,000  Level FlightAware ADS-B
Sat 12:12:43 AM 39.3215 -112.4235 253° West 391 450 36,000  Level FlightAware ADS-B (KBTF)
Sat 12:13:14 AM 39.3057 -112.4897 253° West 389 448 36,000  Level FlightAware ADS-B
Sat 12:13:43 AM 39.2905 -112.5553 255° West 386 444 36,000  Level FlightAware ADS-B (KBTF)
Sat 12:14:16 AM 39.2747 -112.6287 255° West 388 447 36,000  Level FlightAware ADS-B
Sat 12:14:46 AM 39.2604 -112.6950 254° West 389 448 36,000  Level FlightAware ADS-B
Sat 12:15:16 AM 39.2455 -112.7625 254° West 388 447 36,000  Level FlightAware ADS-B
Sat 12:15:47 AM 39.2303 -112.8306 254° West 386 444 36,000  Level FlightAware ADS-B
Sat 12:16:18 AM 39.2154 -112.8969 254° West 387 445 36,000  Level FlightAware ADS-B
Sat 12:16:39 AM 39.2042 -112.9470 255° West 386 444 36,000  Level FlightAware ADS-B
Sat 12:17:00 AM 39.1940 -112.9922 255° West 386 444 36,000  Level FlightAware ADS-B
Sat 12:17:20 AM 39.1842 -113.0360 255° West 386 444 36,000  Level FlightAware ADS-B
Sat 12:17:51 AM 39.1687 -113.1041 254° West 388 447 36,000  Level FlightAware ADS-B
Sat 12:18:21 AM 39.1537 -113.1704 254° West 388 447 36,000  Level FlightAware ADS-B
Sat 12:18:28 AM 39.1500 -113.1868 255° West 386 444 36,000  Level FlightAware ADS-B
Sat 12:19:01 AM 39.1333 -113.2599 254° West 390 449 36,000  Level FlightAware ADS-B
Sat 12:19:32 AM 39.1177 -113.3285 254° West 391 450 36,000  Level FlightAware ADS-B
Sat 12:20:02 AM 39.1030 -113.3931 254° West 392 451 36,000  Level FlightAware ADS-B
Sat 12:20:33 AM 39.0868 -113.4637 254° West 393 452 36,000  Level FlightAware ADS-B
Sat 12:21:23 AM 39.0605 -113.5772 253° West 396 456 36,000  Level FlightAware ADS-B
Sat 12:21:54 AM 39.0443 -113.6473 253° West 395 455 36,000  Level FlightAware ADS-B
Sat 12:22:29 AM 39.0266 -113.7246 254° West 395 455 36,000  Level FlightAware ADS-B
Sat 12:22:59 AM 39.0111 -113.7914 253° West 396 456 36,000  Level FlightAware ADS-B
Sat 12:23:33 AM 38.9930 -113.8700 253° West 395 455 36,000  Level FlightAware ADS-B
Sat 12:24:03 AM 38.9774 -113.9363 253° West 395 455 36,000  Level FlightAware ADS-B
Sat 12:24:34 AM 38.9611 -114.0057 253° West 396 456 36,000  Level FlightAware ADS-B
Sat 12:25:05 AM 38.9445 -114.0754 253° West 395 455 36,000  Level FlightAware ADS-B
Sat 12:25:35 AM 38.9280 -114.1450 253° West 396 456 36,000  Level FlightAware ADS-B
Sat 12:26:15 AM 38.9075 -114.2318 253° West 392 451 36,000  Level FlightAware ADS-B
Sat 12:26:56 AM 38.8878 -114.3148 253° West 392 451 36,000  Level FlightAware ADS-B
Sat 01:00:12 AM 37.8919 -118.7955 261° West 393 452 36,000  Level FlightAware ADS-B (KSAC)
Sat 01:00:53 AM 37.8816 -118.8863 261° West 393 452 36,000  Level FlightAware ADS-B (KSAC)
Sat 01:01:33 AM 37.8673 -119.0119 262° West 392 451 36,000  Level FlightAware ADS-B
Sat 01:02:08 AM 37.8578 -119.0943 262° West 394 453 36,000  Level FlightAware ADS-B
Sat 01:02:47 AM 37.8471 -119.1874 262° West 396 456 36,000  Level FlightAware ADS-B
Sat 01:03:30 AM 37.8397 -119.2511 261° West 397 457 36,000 71 Level FlightAware ADS-B (KSAC)
Sat 01:04:12 AM 37.8288 -119.3447 261° West 396 456 36,100  Climbing FlightAware ADS-B (KSAC)
Sat 01:04:52 AM 37.8184 -119.4323 261° West 395 455 36,000 -75 Descending FlightAware ADS-B (KSAC)
Sat 01:05:32 AM 37.8070 -119.5289 261° West 394 453 36,000  Level FlightAware ADS-B (KSAC)
Sat 01:06:13 AM 37.7950 -119.6285 261° West 394 453 36,000  Level FlightAware ADS-B (KSAC)
Sat 01:06:52 AM 37.7846 -119.7144 261° West 394 453 36,000 -228 Level FlightAware ADS-B (KSAC)
Sat 01:07:32 AM 37.7733 -119.8074 261° West 392 451 35,700 -741 Descending FlightAware ADS-B (KSAC)
Sat 01:08:13 AM 37.7616 -119.9022 261° West 399 459 35,000 -963 Descending FlightAware ADS-B (KSAC)
Sat 01:08:53 AM 37.7504 -119.9942 261° West 409 471 34,400 -975 Descending FlightAware ADS-B (KSAC)
Sat 01:09:33 AM 37.7384 -120.0912 261° West 411 473 33,700 -987 Descending FlightAware ADS-B (KSAC)
Sat 01:10:12 AM 37.7273 -120.1797 260° West 405 466 33,100 -987 Descending FlightAware ADS-B (KSAC)
Sat 01:10:52 AM 37.7155 -120.2726 261° West 405 466 32,400 -975 Descending FlightAware ADS-B (KSAC)
Sat 01:11:32 AM 37.7039 -120.3663 260° West 415 478 31,800 -1,650 Descending FlightAware ADS-B (KSAC)
Sat 01:12:12 AM 37.6909 -120.4668 260° West 413 475 30,200 -2,550 Descending FlightAware ADS-B (KSAC)
Sat 01:12:52 AM 37.6793 -120.5578 260° West 406 467 28,400 -2,667 Descending FlightAware ADS-B (KSAC)
Sat 01:13:33 AM 37.6686 -120.6417 260° West 400 460 26,600 -2,707 Descending FlightAware ADS-B (KSAC)
Sat 01:14:14 AM 37.6552 -120.7444 260° West 394 453 24,700 -2,571 Descending FlightAware ADS-B (KSAC)
Sat 01:14:50 AM 37.6445 -120.8260 260° West 388 447 23,300 -2,385 Descending FlightAware ADS-B (KSAC)
Sat 01:15:32 AM 37.6327 -120.9158 260° West 382 440 21,600 -2,341 Descending FlightAware ADS-B (KSAC)
Sat 01:16:12 AM 37.6211 -121.0064 261° West 375 432 20,100 -2,250 Descending FlightAware ADS-B (KSAC)
Sat 01:16:52 AM 37.6119 -121.0900 262° West 372 428 18,600 -2,847 Descending FlightAware ADS-B (KSAC)
Sat 01:17:11 AM 37.6040 -121.1620 262° West 372 428 17,300 -1,610 Descending FlightAware ADS-B
Sat 01:17:33 AM 37.6028 -121.1726 262° West 370 426 17,500 -2,000 Climbing FlightAware ADS-B (KSAC)
Sat 01:17:41 AM 37.5969 -121.2250 262° West 369 425 16,300 -3,429 Descending FlightAware ADS-B
Sat 01:18:15 AM 37.5887 -121.2970 262° West 365 420 15,100 -2,091 Descending FlightAware ADS-B
Sat 01:18:47 AM 37.5808 -121.3650 262° West 359 413 14,000 -649 Descending FlightAware ADS-B
Sat 01:18:52 AM 37.5838 -121.3402 261° West 360 414 14,700 -2,129 Climbing FlightAware ADS-B (KSAC)
Sat 01:19:18 AM 37.5736 -121.4270 262° West 355 409 12,900 -2,129 Descending FlightAware ADS-B
Sat 01:19:23 AM 37.5784 -121.3861 261° West 357 411 13,600 -2,000 Climbing FlightAware ADS-B (KSAC)
Sat 01:19:48 AM 37.5664 -121.4880 262° West 351 404 11,900 -3,800 Descending FlightAware ADS-B
Sat 01:19:53 AM 37.5654 -121.4968 262° West 349 402 11,700 -1,000 Descending FlightAware ADS-B
Sat 01:20:18 AM 37.5594 -121.5480 262° West 331 381 11,400 -667 Descending FlightAware ADS-B
Sat 01:20:38 AM 37.5559 -121.5783 262° West 321 369 11,200 -750 Descending FlightAware ADS-B
Sat 01:20:50 AM 37.5523 -121.6080 262° West 329 379 11,000 -783 Descending FlightAware ADS-B
Sat 01:21:01 AM 37.5494 -121.6280 257° West 331 381 10,900 783 Descending FlightAware ADS-B
Sat 01:21:13 AM 37.5511 -121.6181 260° West 330 380 11,300 -727 Climbing FlightAware ADS-B (KSAC)
Sat 01:21:34 AM 37.5354 -121.6880 253° West 311 358 10,500 -1,756 Descending FlightAware ADS-B
Sat 01:21:54 AM 37.5276 -121.7203 253° West 296 341 10,100 -938 Descending FlightAware ADS-B
Sat 01:22:06 AM 37.5229 -121.7400 253° West 293 337 10,000 -545 Descending FlightAware ADS-B
Sat 01:22:16 AM 37.5190 -121.7570 254° West 287 330 9,900 -1,000 Descending FlightAware ADS-B
Sat 01:22:18 AM 37.5196 -121.7540 254° West 285 328 9,800 -706 Descending FlightAware ADS-B
Sat 01:22:33 AM 37.5131 -121.7820 253° West 277 319 9,700 -545 Descending FlightAware ADS-B
Sat 01:22:40 AM 37.5104 -121.7929 253° West 272 313 9,600 -400 Descending FlightAware ADS-B
Sat 01:22:48 AM 37.5072 -121.8070 253° West 265 305 9,600 -571 Level FlightAware ADS-B
Sat 01:23:01 AM 37.5035 -121.8220 253° West 258 297 9,400 -750 Descending FlightAware ADS-B
Sat 01:23:04 AM 37.5020 -121.8280 253° West 258 297 9,400 -1,333 Level FlightAware ADS-B
Sat 01:23:19 AM 37.4968 -121.8500 253° West 255 293 9,000 -1,500 Descending FlightAware ADS-B
Sat 01:23:24 AM 37.4951 -121.8570 253° West 255 293 8,900 -1,125 Descending FlightAware ADS-B
Sat 01:23:35 AM 37.4916 -121.8730 256° West 254 292 8,700 -1,286 Descending FlightAware ADS-B
Sat 01:23:38 AM 37.4910 -121.8780 263° West 253 291 8,600 -2,000 Descending FlightAware ADS-B
Sat 01:23:41 AM 37.4909 -121.8792 263° West 253 291 8,500 -1,500 Descending FlightAware ADS-B
Sat 01:23:42 AM 37.4908 -121.8820 267° West 252 290 8,500 -1,000 Level FlightAware ADS-B
Sat 01:23:47 AM 37.4909 -121.8890 272° West 251 289 8,400 -1,429 Descending FlightAware ADS-B
Sat 01:24:03 AM 37.4919 -121.9150 272° West 248 285 8,000 -1,313 Descending FlightAware ADS-B
Sat 01:24:19 AM 37.4925 -121.9370 272° West 246 283 7,700 -1,059 Descending FlightAware ADS-B
Sat 01:24:20 AM 37.4925 -121.9370 272° West 246 283 7,700 -1,200 Level FlightAware ADS-B
Sat 01:24:34 AM 37.4931 -121.9580 272° West 244 281 7,400 -1,667 Descending FlightAware ADS-B
Sat 01:24:38 AM 37.4932 -121.9623 272° West 244 281 7,200 -1,846 Descending FlightAware ADS-B
Sat 01:24:47 AM 37.4936 -121.9770 273° West 245 282 7,000 -1,200 Descending FlightAware ADS-B
Sat 01:24:53 AM 37.4942 -121.9840 278° West 245 282 6,900 -1,200 Descending FlightAware ADS-B
Sat 01:24:57 AM 37.4953 -121.9900 285° West 245 282 6,800 -1,714 Descending FlightAware ADS-B
Sat 01:25:00 AM 37.4962 -121.9937 288° West 244 281 6,700 -1,500 Descending FlightAware ADS-B
Sat 01:25:01 AM 37.4967 -121.9950 291° West 244 281 6,700 -1,500 Level FlightAware ADS-B
Sat 01:25:16 AM 37.5039 -122.0160 293° West 241 277 6,300 -1,500 Descending FlightAware ADS-B
Sat 01:25:21 AM 37.5055 -122.0203 292° West 241 277 6,200 -1,600 Descending FlightAware ADS-B
Sat 01:25:31 AM 37.5101 -122.0350 292° West 239 275 5,900 -1,500 Descending FlightAware ADS-B
Sat 01:25:41 AM 37.5136 -122.0460 292° West 240 276 5,700 -1,500 Descending FlightAware ADS-B
Sat 01:25:47 AM 37.5164 -122.0550 292° West 239 275 5,500 -1,263 Descending FlightAware ADS-B
Sat 01:26:00 AM 37.5219 -122.0715 292° West 228 262 5,300 -1,000 Descending FlightAware ADS-B
Sat 01:26:05 AM 37.5237 -122.0770 292° West 222 255 5,200 -706 Descending FlightAware ADS-B
Sat 01:26:17 AM 37.5282 -122.0910 292° West 211 243 5,100 -462 Descending FlightAware ADS-B
Sat 01:26:18 AM 37.5274 -122.0885 292° West 210 242 5,100 -316 Level FlightAware ADS-B
Sat 01:26:36 AM 37.5347 -122.1110 292° West 190 219 5,000 -900 Descending FlightAware ADS-B
Sat 01:26:38 AM 37.5342 -122.1096 292° West 186 214 4,800 -2,000 Descending FlightAware ADS-B
Sat 01:26:51 AM 37.5397 -122.1270 292° West 186 214 4,500 -1,636 Descending FlightAware ADS-B
Sat 01:27:00 AM 37.5425 -122.1352 292° West 186 214 4,200 -2,000 Descending FlightAware ADS-B
Sat 01:27:06 AM 37.5446 -122.1420 292° West 186 214 4,000 -1,800 Descending FlightAware ADS-B
Sat 01:27:20 AM 37.5489 -122.1550 292° West 183 211 3,600 -1,862 Descending FlightAware ADS-B
Sat 01:27:35 AM 37.5539 -122.1710 292° West 179 206 3,100 -2,000 Descending FlightAware ADS-B
Sat 01:27:41 AM 37.5557 -122.1760 292° West 179 206 2,900 -1,875 Descending FlightAware ADS-B
Sat 01:27:51 AM 37.5589 -122.1860 292° West 178 205 2,600 -2,000 Descending FlightAware ADS-B
Sat 01:27:59 AM 37.5612 -122.1930 292° West 177 204 2,300 -1,846 Descending FlightAware ADS-B
Sat 01:28:04 AM 37.5628 -122.1980 292° West 177 204 2,200 -900 Descending FlightAware ADS-B
Sat 01:28:19 AM 37.5674 -122.2120 292° West 179 206 2,000 -750 Descending FlightAware ADS-B
Sat 01:28:20 AM 37.5676 -122.2129 292° West 179 206 2,000  Level FlightAware ADS-B
Sat 01:28:36 AM 37.5725 -122.2280 292° West 170 196 2,000 -188 Level FlightAware ADS-B
Sat 01:28:52 AM 37.5770 -122.2430 291° West 165 190 1,900 -720 Descending FlightAware ADS-B
Sat 01:29:01 AM 37.5791 -122.2510 289° West 154 177 1,700 -1,286 Descending FlightAware ADS-B
Sat 01:29:06 AM 37.5802 -122.2550 287° West 151 174 1,600 -545 Descending FlightAware ADS-B
Sat 01:29:23 AM 37.5832 -122.2680 286° West 142 163 1,500 -444 Descending FlightAware ADS-B
Sat 01:29:33 AM 37.5851 -122.2760 286° West 139 160 1,400 -750 Descending FlightAware ADS-B
Sat 01:29:47 AM 37.5874 -122.2870 284° West 139 160 1,200 -1,000 Descending FlightAware ADS-B
Sat 01:29:51 AM 37.5880 -122.2910 282° West 138 159 1,100 -667 Descending FlightAware ADS-B
Sat 01:30:05 AM 37.5903 -122.3010 292° West 136 157 1,000 -720 Descending FlightAware ADS-B
Sat 01:30:16 AM 37.5935 -122.3090 297° West 136 157 800 -800 Descending FlightAware ADS-B
Sat 01:30:35 AM 37.5986 -122.3220 297° West 133 153 600 -522 Descending FlightAware ADS-B
Sat 01:30:39 AM 37.6000 -122.3250 299° West 132 152 600 -667 Level FlightAware ADS-B
Sat 01:30:44 AM 37.6014 -122.3280 298° West 133 153 500 -571 Descending FlightAware ADS-B
Sat 01:31:00 AM 37.6058 -122.3390 297° West 135 155 400 -571 Descending FlightAware ADS-B
Sat 01:31:05 AM 37.6076 -122.3430 298° West 136 157 300 -1,333 Descending FlightAware ADS-B
Sat 01:31:09 AM 37.6088 -122.3460 299° West 135 155 200 -923 Descending FlightAware ADS-B
Sat 01:31:18 AM 37.6111 -122.3510 298° West 134 154 100 -667 Descending FlightAware ADS-B

Login

Don't have an account? Register now (free) for customized features, flight alerts, and more!